Time;durP1;ratioP1;P1;durP2;ratioP2;P2;SDS_P1;SDS_P2;PMS_P1;PMS_P2;Temp;Humidity;BMP_temperature;BMP_pressure;BME280_temperature;BME280_humidity;BME280_pressure;Samples;Min_cycle;Max_cycle;Signal;HPM_P1;HPM_P2
2021/03/24 00:00:19;;;;;;;18.87;13.63;;;6.70;99.90;;;;;;5069811;28;20193;-68
2021/03/24 00:02:45;;;;;;;17.58;12.48;;;6.70;99.90;;;;;;5061686;28;20213;-69
2021/03/24 00:05:21;;;;;;;16.30;12.33;;;6.70;99.90;;;;;;5069320;28;20690;-68
2021/03/24 00:07:47;;;;;;;14.65;11.80;;;6.70;99.90;;;;;;5070676;28;20508;-68
2021/03/24 00:10:14;;;;;;;19.23;13.13;;;6.70;99.90;;;;;;5071028;28;20185;-68
2021/03/24 00:12:40;;;;;;;15.50;12.23;;;6.70;99.90;;;;;;5070625;28;20192;-68
2021/03/24 00:15:11;;;;;;;15.77;11.90;;;6.70;99.90;;;;;;5071577;28;20423;-68
2021/03/24 00:17:36;;;;;;;18.00;12.95;;;6.60;99.90;;;;;;5068178;28;20193;-69
2021/03/24 00:20:05;;;;;;;16.80;12.80;;;6.60;99.90;;;;;;5070041;28;20250;-69
2021/03/24 00:22:31;;;;;;;17.35;12.77;;;6.60;99.90;;;;;;5062823;28;20191;-70
2021/03/24 00:24:56;;;;;;;17.90;13.23;;;6.50;99.90;;;;;;5071057;28;20220;-69
2021/03/24 00:27:22;;;;;;;15.83;12.97;;;6.60;99.90;;;;;;5070162;28;20204;-69
2021/03/24 00:29:47;;;;;;;18.60;12.97;;;6.60;99.90;;;;;;5070469;28;20215;-69
2021/03/24 00:32:13;;;;;;;21.07;13.63;;;6.60;99.90;;;;;;5070323;28;20260;-69
2021/03/24 00:34:38;;;;;;;19.33;13.93;;;6.60;99.90;;;;;;5070709;28;20595;-69
2021/03/24 00:37:04;;;;;;;17.70;12.87;;;6.50;99.90;;;;;;5070631;28;20187;-69
2021/03/24 00:39:30;;;;;;;19.53;13.83;;;6.50;99.90;;;;;;5070909;28;20187;-69
2021/03/24 00:41:55;;;;;;;19.00;12.90;;;6.50;99.90;;;;;;5068843;28;20186;-69
2021/03/24 00:44:21;;;;;;;16.90;12.70;;;6.50;99.90;;;;;;5070803;28;20203;-69
2021/03/24 00:46:47;;;;;;;19.13;14.43;;;6.60;99.90;;;;;;5069231;28;20267;-69
2021/03/24 00:49:13;;;;;;;19.90;13.77;;;6.50;99.90;;;;;;5070369;28;20265;-69
2021/03/24 00:51:38;;;;;;;19.00;13.27;;;6.50;99.90;;;;;;5070164;28;20692;-69
2021/03/24 00:54:04;;;;;;;20.20;13.90;;;6.50;99.90;;;;;;5069840;28;20197;-69
2021/03/24 00:56:30;;;;;;;20.50;14.40;;;6.50;99.90;;;;;;5069860;28;20193;-69
2021/03/24 00:58:55;;;;;;;19.47;13.40;;;6.40;99.90;;;;;;5067470;28;20185;-69
2021/03/24 01:01:21;;;;;;;20.37;13.83;;;6.40;99.90;;;;;;5068171;28;20189;-69
2021/03/24 01:03:46;;;;;;;16.20;12.73;;;6.50;99.90;;;;;;5069161;28;20222;-69
2021/03/24 01:06:12;;;;;;;19.13;14.40;;;6.50;99.90;;;;;;5069964;28;20187;-69
2021/03/24 01:08:38;;;;;;;18.20;12.80;;;6.50;99.90;;;;;;5069250;28;20206;-69
2021/03/24 01:11:04;;;;;;;21.10;13.63;;;6.50;99.90;;;;;;5069942;28;20187;-69
2021/03/24 01:13:30;;;;;;;19.15;13.68;;;6.50;99.90;;;;;;5069073;28;20440;-69
2021/03/24 01:15:56;;;;;;;16.40;12.00;;;6.50;99.90;;;;;;5069944;28;20184;-69
2021/03/24 01:18:23;;;;;;;20.33;13.13;;;6.50;99.90;;;;;;5068060;28;20186;-69
2021/03/24 01:20:49;;;;;;;18.65;14.68;;;6.50;99.90;;;;;;5069948;28;20182;-69
2021/03/24 01:23:15;;;;;;;19.02;13.30;;;6.50;99.90;;;;;;5069428;28;20610;-69
2021/03/24 01:25:42;;;;;;;17.67;13.27;;;6.50;99.90;;;;;;5067626;28;20252;-69
2021/03/24 01:28:15;;;;;;;17.73;13.27;;;6.50;99.90;;;;;;5070051;28;20183;-70
2021/03/24 01:30:40;;;;;;;19.70;13.80;;;6.50;99.90;;;;;;5069618;28;20193;-70
2021/03/24 01:33:06;;;;;;;19.23;13.10;;;6.50;99.90;;;;;;5068749;28;20209;-70
2021/03/24 01:35:32;;;;;;;17.13;13.05;;;6.50;99.90;;;;;;5068936;28;20223;-70
2021/03/24 01:37:58;;;;;;;17.53;13.17;;;6.50;99.90;;;;;;5069105;28;20269;-70
2021/03/24 01:40:30;;;;;;;18.33;13.60;;;6.40;99.90;;;;;;5067981;28;20282;-69
2021/03/24 01:42:59;;;;;;;17.85;13.60;;;6.50;99.90;;;;;;5069012;28;20669;-69
2021/03/24 01:45:24;;;;;;;18.33;13.93;;;6.50;99.90;;;;;;5069026;28;20213;-68
2021/03/24 01:47:50;;;;;;;19.37;13.17;;;6.40;99.90;;;;;;5069004;28;20190;-69
2021/03/24 01:50:21;;;;;;;18.90;13.40;;;6.50;99.90;;;;;;5067717;28;20244;-70
2021/03/24 01:52:47;;;;;;;19.08;14.27;;;6.50;99.90;;;;;;5069113;28;20506;-69
2021/03/24 01:55:14;;;;;;;17.40;13.97;;;6.50;99.90;;;;;;5069404;28;20202;-69
2021/03/24 01:57:42;;;;;;;17.48;13.30;;;6.50;99.90;;;;;;5065368;28;20192;-69
2021/03/24 02:00:37;;;;;;;16.40;12.95;;;6.50;99.90;;;;;;5069442;28;20742;-68
2021/03/24 02:03:05;;;;;;;18.85;13.55;;;6.50;99.90;;;;;;5076993;28;20276;-69
2021/03/24 02:05:31;;;;;;;22.33;14.05;;;6.60;99.90;;;;;;5068895;28;20204;-69
2021/03/24 02:08:01;;;;;;;16.07;11.97;;;6.50;99.90;;;;;;5066965;28;20514;-69
2021/03/24 02:10:49;;;;;;;21.50;14.10;;;6.50;99.90;;;;;;5067384;28;20537;-69
2021/03/24 02:13:21;;;;;;;19.05;13.05;;;6.50;99.90;;;;;;5067914;28;20185;-70
2021/03/24 02:15:55;;;;;;;16.42;12.60;;;6.50;99.90;;;;;;5065768;28;20182;-69
2021/03/24 02:18:22;;;;;;;18.92;14.20;;;6.50;99.90;;;;;;5068464;28;20200;-70
2021/03/24 02:21:00;;;;;;;19.17;13.85;;;6.40;99.90;;;;;;5068362;28;20316;-69
2021/03/24 02:23:41;;;;;;;19.80;13.10;;;6.40;99.90;;;;;;5068891;28;20196;-70
2021/03/24 02:26:28;;;;;;;20.70;14.18;;;6.40;99.90;;;;;;5067423;28;20644;-70
2021/03/24 02:28:55;;;;;;;19.17;13.63;;;6.50;99.90;;;;;;5069240;28;20213;-70
2021/03/24 02:31:23;;;;;;;20.02;13.05;;;6.50;99.90;;;;;;5066599;28;20186;-70
2021/03/24 02:33:52;;;;;;;21.52;13.73;;;6.50;99.90;;;;;;5069097;28;20208;-70
2021/03/24 02:36:20;;;;;;;18.98;13.77;;;6.40;99.90;;;;;;5068364;28;20190;-70
2021/03/24 02:38:49;;;;;;;20.02;12.85;;;6.40;99.90;;;;;;5068889;28;20529;-69
2021/03/24 02:41:15;;;;;;;22.00;14.48;;;6.50;99.90;;;;;;5067271;28;20234;-69
2021/03/24 02:43:42;;;;;;;23.52;14.35;;;6.50;99.90;;;;;;5068908;28;20255;-70
2021/03/24 02:46:10;;;;;;;19.35;14.02;;;6.50;99.90;;;;;;5068543;28;20635;-70
2021/03/24 02:48:39;;;;;;;20.17;13.30;;;6.50;99.90;;;;;;5067776;28;20177;-70
2021/03/24 02:51:08;;;;;;;17.45;12.88;;;6.50;99.90;;;;;;5066277;28;20581;-70
2021/03/24 02:53:38;;;;;;;22.40;14.32;;;6.50;99.90;;;;;;5056949;28;20171;-70
2021/03/24 02:56:06;;;;;;;23.75;14.00;;;6.50;99.90;;;;;;5069062;28;20516;-70
2021/03/24 02:58:32;;;;;;;21.13;14.70;;;6.40;99.90;;;;;;5068776;28;20170;-69
2021/03/24 03:01:01;;;;;;;18.52;13.80;;;6.50;99.90;;;;;;5067623;28;20191;-70
2021/03/24 03:03:30;;;;;;;18.83;13.82;;;6.40;99.90;;;;;;5065429;28;20222;-70
2021/03/24 03:05:58;;;;;;;20.42;13.90;;;6.50;99.90;;;;;;5068305;28;20217;-69
2021/03/24 03:08:53;;;;;;;22.92;13.95;;;6.50;99.90;;;;;;5067658;28;20179;-70
2021/03/24 03:11:39;;;;;;;18.75;13.07;;;6.40;99.90;;;;;;5068613;28;20265;-70
2021/03/24 03:14:19;;;;;;;21.27;14.93;;;6.50;99.90;;;;;;5066428;28;20181;-69
2021/03/24 03:16:52;;;;;;;20.42;13.98;;;6.50;99.90;;;;;;5067708;28;20178;-70
2021/03/24 03:19:26;;;;;;;22.08;14.90;;;6.40;99.90;;;;;;5069834;28;20214;-70
2021/03/24 03:22:03;;;;;;;17.40;12.18;;;6.30;99.90;;;;;;5052024;28;20190;-70
2021/03/24 03:24:46;;;;;;;21.67;14.45;;;6.20;99.90;;;;;;5066786;28;20220;-70
2021/03/24 03:27:14;;;;;;;20.27;14.98;;;6.20;99.90;;;;;;5071181;28;20181;-70
2021/03/24 03:29:42;;;;;;;23.85;14.43;;;6.20;99.90;;;;;;5072067;28;20185;-70
2021/03/24 03:32:14;;;;;;;19.83;13.70;;;6.20;99.90;;;;;;5072084;28;20182;-70
2021/03/24 03:34:42;;;;;;;19.42;13.20;;;6.20;99.90;;;;;;5071342;28;20193;-70
2021/03/24 03:37:09;;;;;;;18.73;14.40;;;6.20;99.90;;;;;;5072047;28;20189;-70
2021/03/24 03:39:36;;;;;;;19.85;14.02;;;6.30;99.90;;;;;;5071932;28;20190;-70
2021/03/24 03:42:03;;;;;;;17.65;13.18;;;6.30;99.90;;;;;;5069228;28;20280;-70
2021/03/24 03:44:31;;;;;;;17.75;13.38;;;6.30;99.90;;;;;;5080196;28;20691;-70
2021/03/24 03:47:10;;;;;;;17.90;13.13;;;6.30;99.90;;;;;;5071589;28;20196;-70
2021/03/24 03:49:38;;;;;;;21.63;14.88;;;6.30;99.90;;;;;;5070098;28;20232;-70
2021/03/24 03:52:18;;;;;;;17.67;13.15;;;6.30;99.90;;;;;;5071667;28;20983;-70
2021/03/24 03:54:54;;;;;;;20.33;14.48;;;6.30;99.90;;;;;;5069658;28;20213;-71
2021/03/24 03:57:39;;;;;;;23.60;14.85;;;6.30;99.90;;;;;;5069449;28;20194;-70
2021/03/24 04:00:21;;;;;;;19.70;13.68;;;6.30;99.90;;;;;;5070640;28;20220;-70
2021/03/24 04:02:57;;;;;;;21.25;13.73;;;6.30;99.90;;;;;;5069896;28;20693;-70
2021/03/24 04:05:28;;;;;;;21.75;14.00;;;6.30;99.90;;;;;;5070919;28;20612;-70
2021/03/24 04:08:06;;;;;;;20.65;14.57;;;6.30;99.90;;;;;;5069877;28;20182;-70
2021/03/24 04:10:36;;;;;;;20.88;14.40;;;6.30;99.90;;;;;;5061502;28;20170;-70
2021/03/24 04:13:02;;;;;;;21.10;14.68;;;6.30;99.90;;;;;;5068316;28;20183;-70
2021/03/24 04:15:29;;;;;;;22.00;14.93;;;6.30;99.90;;;;;;5070516;28;20499;-70
2021/03/24 04:18:01;;;;;;;19.95;13.68;;;6.30;99.90;;;;;;5068603;28;20196;-70
2021/03/24 04:20:29;;;;;;;19.08;14.02;;;6.30;99.90;;;;;;5086142;28;20576;-70
2021/03/24 04:22:56;;;;;;;18.77;13.80;;;6.20;99.90;;;;;;5061598;28;20179;-70
2021/03/24 04:25:41;;;;;;;20.33;14.00;;;6.20;99.90;;;;;;5068522;28;20284;-70
2021/03/24 04:28:10;;;;;;;22.13;14.85;;;6.20;99.90;;;;;;5070719;28;20223;-70
2021/03/24 04:30:42;;;;;;;23.42;16.15;;;6.30;99.90;;;;;;5068291;28;20210;-70
2021/03/24 04:33:08;;;;;;;25.48;15.75;;;6.30;99.90;;;;;;5051378;28;20185;-71
2021/03/24 04:35:43;;;;;;;21.77;15.03;;;6.30;99.90;;;;;;5065545;28;20954;-71
2021/03/24 04:38:31;;;;;;;22.48;15.40;;;6.30;99.90;;;;;;5070045;28;20231;-70
2021/03/24 04:41:01;;;;;;;21.45;14.70;;;6.20;99.90;;;;;;5071128;28;20251;-70
2021/03/24 04:43:31;;;;;;;20.42;14.93;;;6.20;99.90;;;;;;5069151;28;20173;-68
2021/03/24 04:46:01;;;;;;;26.52;16.15;;;6.30;99.90;;;;;;5085750;28;20199;-68
2021/03/24 04:48:34;;;;;;;19.58;15.05;;;6.20;99.90;;;;;;5069002;28;20225;-68
2021/03/24 04:51:05;;;;;;;24.15;15.65;;;6.30;99.90;;;;;;5063629;28;20179;-68
2021/03/24 04:53:34;;;;;;;22.45;14.80;;;6.20;99.90;;;;;;5068756;28;20571;-69
2021/03/24 04:56:01;;;;;;;21.23;15.40;;;6.30;99.90;;;;;;5068627;28;20646;-69
2021/03/24 04:58:33;;;;;;;20.02;14.40;;;6.40;99.90;;;;;;5070968;28;20501;-69
2021/03/24 05:01:22;;;;;;;20.88;13.98;;;6.40;99.90;;;;;;5070192;28;20267;-69
2021/03/24 05:03:58;;;;;;;22.58;15.75;;;6.40;99.90;;;;;;5067024;28;20230;-69
2021/03/24 05:06:36;;;;;;;22.38;14.90;;;6.40;99.90;;;;;;5076651;28;20647;-70
2021/03/24 05:09:05;;;;;;;23.38;14.88;;;6.30;99.90;;;;;;5068054;28;20185;-68
2021/03/24 05:11:32;;;;;;;25.10;14.40;;;6.30;99.90;;;;;;5068971;28;20708;-68
2021/03/24 05:14:25;;;;;;;22.13;14.27;;;6.30;99.90;;;;;;5069215;28;20214;-69
2021/03/24 05:17:02;;;;;;;24.50;15.32;;;6.40;99.90;;;;;;5067312;28;20186;-70
2021/03/24 05:19:29;;;;;;;23.85;14.52;;;6.40;99.90;;;;;;5059233;28;20210;-69
2021/03/24 05:22:30;;;;;;;23.30;14.68;;;6.30;99.90;;;;;;5060795;28;20182;-76
2021/03/24 05:25:00;;;;;;;25.30;16.40;;;6.30;99.90;;;;;;5043666;28;20220;-77
2021/03/24 05:27:34;;;;;;;27.15;15.82;;;6.30;99.90;;;;;;5061436;28;20235;-74
2021/03/24 05:30:08;;;;;;;24.08;15.13;;;6.20;99.90;;;;;;5060358;28;20191;-77
2021/03/24 05:32:46;;;;;;;23.35;15.50;;;6.20;99.90;;;;;;5060293;28;20242;-77
2021/03/24 05:35:53;;;;;;;21.90;15.68;;;6.10;99.90;;;;;;5059525;28;20276;-75
2021/03/24 05:38:29;;;;;;;22.08;15.38;;;6.10;99.90;;;;;;5053937;28;20201;-76
2021/03/24 05:41:08;;;;;;;23.92;15.55;;;6.10;99.90;;;;;;5058898;28;20643;-76
2021/03/24 05:44:04;;;;;;;22.63;16.08;;;6.10;99.90;;;;;;5063223;28;20173;-75
2021/03/24 05:47:07;;;;;;;24.17;15.10;;;6.00;99.90;;;;;;5068079;28;20296;-75
2021/03/24 05:49:54;;;;;;;25.00;15.18;;;6.00;99.90;;;;;;5079561;28;20190;-75
2021/03/24 05:52:43;;;;;;;22.23;14.88;;;6.00;99.90;;;;;;5068231;28;20242;-75
2021/03/24 05:55:28;;;;;;;24.75;15.15;;;6.00;99.90;;;;;;5056525;28;20173;-75
2021/03/24 05:58:05;;;;;;;21.45;14.55;;;6.00;99.90;;;;;;5068478;28;20716;-75
2021/03/24 06:01:12;;;;;;;20.50;13.82;;;6.00;99.90;;;;;;5065195;28;20507;-75
2021/03/24 06:03:50;;;;;;;22.30;14.75;;;6.00;99.90;;;;;;5049021;28;20321;-74
2021/03/24 06:06:18;;;;;;;21.00;13.38;;;6.00;99.90;;;;;;5068804;28;20185;-75
2021/03/24 06:09:08;;;;;;;20.50;13.32;;;6.10;99.90;;;;;;5069540;28;20574;-75
2021/03/24 06:11:58;;;;;;;22.42;15.00;;;6.00;99.90;;;;;;5065433;28;20256;-74
2021/03/24 06:14:47;;;;;;;20.70;13.85;;;6.00;99.90;;;;;;5069551;28;20211;-75
2021/03/24 06:17:44;;;;;;;17.92;12.57;;;5.90;99.90;;;;;;5068081;28;20185;-75
2021/03/24 06:20:41;;;;;;;25.52;13.18;;;6.00;99.90;;;;;;5069281;28;20243;-74
2021/03/24 06:23:25;;;;;;;17.25;13.13;;;6.10;99.90;;;;;;5068554;28;20189;-74
2021/03/24 06:26:22;;;;;;;20.17;13.32;;;6.20;99.90;;;;;;5069550;28;20201;-75
2021/03/24 06:29:11;;;;;;;22.35;13.88;;;6.20;99.90;;;;;;5058251;28;20182;-75
2021/03/24 06:31:37;;;;;;;18.30;12.48;;;6.20;99.90;;;;;;5067751;28;20166;-75
2021/03/24 06:34:53;;;;;;;23.10;13.67;;;6.40;99.90;;;;;;5069335;28;20639;-75
2021/03/24 06:37:37;;;;;;;19.40;12.40;;;6.40;99.90;;;;;;5059237;28;20185;-74
2021/03/24 06:40:21;;;;;;;19.10;12.68;;;6.50;99.90;;;;;;5067118;28;20649;-76
2021/03/24 06:43:07;;;;;;;20.15;13.48;;;6.60;99.90;;;;;;5069410;28;20190;-75
2021/03/24 06:46:12;;;;;;;18.50;12.75;;;6.70;99.90;;;;;;5064003;28;20208;-73
2021/03/24 06:48:48;;;;;;;20.38;13.55;;;6.90;99.90;;;;;;4993362;28;21081;-66
2021/03/24 06:51:48;;;;;;;18.80;12.73;;;6.90;99.90;;;;;;5059287;28;20175;-66
2021/03/24 06:54:48;;;;;;;23.90;14.70;;;7.10;99.90;;;;;;5057052;28;20193;-66
2021/03/24 06:57:43;;;;;;;20.03;14.10;;;7.20;99.90;;;;;;5066413;28;20183;-66
2021/03/24 07:00:08;;;;;;;19.02;13.35;;;7.20;99.90;;;;;;5071174;28;20536;-66
2021/03/24 07:03:07;;;;;;;25.23;14.83;;;7.30;99.90;;;;;;5071068;28;20290;-65
2021/03/24 07:05:47;;;;;;;21.50;13.57;;;7.50;99.90;;;;;;5072790;28;20216;-66
2021/03/24 07:08:13;;;;;;;20.77;14.13;;;7.50;99.90;;;;;;5071542;28;20199;-65
2021/03/24 07:11:10;;;;;;;21.40;14.57;;;7.50;99.90;;;;;;5072640;28;20922;-65
2021/03/24 07:14:01;;;;;;;21.58;14.07;;;7.60;99.90;;;;;;5070893;28;20180;-66
2021/03/24 07:16:38;;;;;;;23.30;15.63;;;7.70;99.90;;;;;;5064838;28;20191;-65
2021/03/24 07:19:38;;;;;;;23.47;15.80;;;7.70;99.90;;;;;;5071544;28;20442;-67
2021/03/24 07:22:23;;;;;;;20.97;15.70;;;7.80;99.90;;;;;;5072215;28;20459;-66
2021/03/24 07:25:13;;;;;;;21.67;15.47;;;7.90;99.90;;;;;;5071268;28;20465;-66
2021/03/24 07:28:12;;;;;;;21.00;14.80;;;8.10;99.90;;;;;;5060475;28;20418;-66
2021/03/24 07:30:38;;;;;;;23.77;15.73;;;8.20;99.90;;;;;;5065647;28;20484;-66
2021/03/24 07:33:32;;;;;;;21.47;14.87;;;8.40;99.90;;;;;;5070152;28;20885;-66
2021/03/24 07:36:26;;;;;;;23.67;17.10;;;8.50;99.90;;;;;;5069862;28;20442;-66
2021/03/24 07:39:10;;;;;;;27.80;18.17;;;8.80;99.90;;;;;;5070581;28;20435;-67
2021/03/24 07:42:07;;;;;;;23.23;16.87;;;8.80;99.90;;;;;;5071965;28;20427;-67
2021/03/24 07:44:54;;;;;;;24.87;17.63;;;9.00;99.90;;;;;;5050847;28;20504;-67
2021/03/24 07:47:28;;;;;;;24.70;17.10;;;9.20;99.90;;;;;;5071879;28;20420;-66
2021/03/24 07:50:03;;;;;;;26.93;18.33;;;9.50;99.90;;;;;;5072793;28;20515;-66
2021/03/24 07:52:45;;;;;;;26.00;17.80;;;9.70;99.90;;;;;;5070315;28;20439;-66
2021/03/24 07:55:23;;;;;;;24.23;17.67;;;9.60;99.90;;;;;;5070983;28;20471;-66
2021/03/24 07:57:52;;;;;;;22.20;16.33;;;9.60;99.90;;;;;;5071382;28;20936;-66
2021/03/24 08:00:29;;;;;;;24.40;17.90;;;9.70;99.90;;;;;;5070976;28;20427;-67
2021/03/24 08:03:13;;;;;;;27.37;18.90;;;9.80;99.90;;;;;;5086356;28;20482;-66
2021/03/24 08:06:17;;;;;;;25.87;19.00;;;10.10;99.90;;;;;;5070684;28;20463;-66
2021/03/24 08:09:10;;;;;;;25.23;18.27;;;10.20;99.90;;;;;;5061211;28;20415;-66
2021/03/24 08:11:50;;;;;;;28.03;19.47;;;10.40;99.90;;;;;;5067197;28;20870;-66
2021/03/24 08:14:25;;;;;;;24.50;19.00;;;10.60;99.90;;;;;;5065197;28;20415;-67
2021/03/24 08:17:19;;;;;;;23.70;18.37;;;10.50;99.90;;;;;;5058364;28;20493;-67
2021/03/24 08:20:26;;;;;;;24.10;18.70;;;10.60;99.90;;;;;;5064885;28;21454;-67
2021/03/24 08:23:10;;;;;;;26.23;19.37;;;10.60;99.90;;;;;;5044194;28;20444;-66
2021/03/24 08:25:57;;;;;;;29.27;20.30;;;10.80;99.70;;;;;;5059870;28;20486;-66
2021/03/24 08:28:29;;;;;;;26.10;20.80;;;11.00;99.40;;;;;;5069594;28;20457;-66
2021/03/24 08:31:18;;;;;;;26.47;19.80;;;10.90;99.30;;;;;;5071069;28;20419;-67
2021/03/24 08:33:56;;;;;;;27.97;19.67;;;11.10;98.50;;;;;;5059537;28;20773;-67
2021/03/24 08:36:49;;;;;;;28.17;19.33;;;11.20;98.40;;;;;;5070928;28;20487;-66
2021/03/24 08:39:46;;;;;;;26.77;21.03;;;11.00;98.40;;;;;;5072409;28;20480;-66
2021/03/24 08:42:44;;;;;;;29.07;20.87;;;10.90;98.90;;;;;;5065442;28;20431;-67
2021/03/24 08:45:30;;;;;;;31.37;21.60;;;10.90;99.20;;;;;;5069170;28;21049;-66
2021/03/24 08:48:04;;;;;;;25.87;20.67;;;11.10;98.30;;;;;;5063297;28;20438;-68
2021/03/24 08:50:36;;;;;;;29.90;20.70;;;11.30;98.40;;;;;;5068675;28;20434;-68
2021/03/24 08:53:14;;;;;;;34.03;20.93;;;11.70;97.00;;;;;;5070169;28;20426;-69
2021/03/24 08:56:14;;;;;;;27.00;20.10;;;11.80;97.20;;;;;;5069726;28;21004;-67
2021/03/24 08:58:58;;;;;;;29.73;21.20;;;12.00;95.70;;;;;;5070068;28;20411;-68
2021/03/24 09:01:59;;;;;;;28.60;22.27;;;12.20;96.30;;;;;;5061205;28;20481;-68
2021/03/24 09:04:36;;;;;;;26.97;20.80;;;12.60;95.30;;;;;;5069627;28;20468;-68
2021/03/24 09:07:16;;;;;;;29.50;21.37;;;12.80;95.30;;;;;;5069012;28;20441;-68
2021/03/24 09:10:11;;;;;;;31.77;23.80;;;13.20;94.10;;;;;;5069496;28;20409;-68
2021/03/24 09:12:45;;;;;;;27.57;20.70;;;13.60;92.50;;;;;;5068099;28;20420;-68
2021/03/24 09:15:24;;;;;;;29.40;22.80;;;13.60;92.00;;;;;;5069882;28;20413;-68
2021/03/24 09:17:56;;;;;;;31.93;23.30;;;13.50;92.40;;;;;;5069221;28;20909;-68
2021/03/24 09:21:04;;;;;;;31.70;23.70;;;13.60;91.10;;;;;;5069319;28;20463;-68
2021/03/24 09:23:47;;;;;;;29.77;23.80;;;13.50;91.70;;;;;;5064399;28;20925;-67
2021/03/24 09:26:25;;;;;;;33.53;25.03;;;13.70;91.40;;;;;;5068602;28;20789;-68
2021/03/24 09:29:18;;;;;;;31.07;23.87;;;13.80;91.80;;;;;;5069342;28;20486;-67
2021/03/24 09:31:54;;;;;;;37.40;27.03;;;14.20;90.30;;;;;;5069368;28;20419;-68
2021/03/24 09:34:58;;;;;;;32.23;25.80;;;14.60;89.60;;;;;;5067734;28;20440;-68
2021/03/24 09:37:31;;;;;;;33.40;25.63;;;15.10;85.60;;;;;;5067777;28;20513;-68
2021/03/24 09:40:00;;;;;;;36.33;25.97;;;15.60;84.40;;;;;;5069043;28;20819;-68
2021/03/24 09:42:48;;;;;;;34.00;26.67;;;15.80;82.40;;;;;;5069270;28;20434;-68
2021/03/24 09:45:19;;;;;;;31.80;27.07;;;16.40;78.60;;;;;;5060905;28;20471;-66
2021/03/24 09:48:14;;;;;;;36.83;27.67;;;16.80;75.40;;;;;;5068590;28;20444;-65
2021/03/24 09:51:00;;;;;;;33.90;26.70;;;16.60;70.70;;;;;;5064706;28;20535;-68
2021/03/24 09:53:29;;;;;;;35.40;28.80;;;16.80;69.70;;;;;;5065469;28;20427;-64
2021/03/24 09:55:54;;;;;;;35.97;29.47;;;17.60;66.90;;;;;;5068520;28;20434;-66
2021/03/24 09:58:27;;;;;;;35.13;27.60;;;17.70;60.70;;;;;;5067654;28;21211;-66
2021/03/24 10:01:01;;;;;;;36.40;29.60;;;17.50;60.10;;;;;;5068956;28;20275;-66
2021/03/24 10:03:52;;;;;;;33.87;28.30;;;16.90;61.00;;;;;;5068595;28;20542;-65
2021/03/24 10:06:29;;;;;;;37.70;31.30;;;16.30;62.50;;;;;;5056023;28;20427;-65
2021/03/24 10:09:16;;;;;;;39.87;31.20;;;16.10;63.70;;;;;;5063632;28;20822;-68
2021/03/24 10:12:11;;;;;;;38.10;29.77;;;15.50;61.60;;;;;;5067920;28;20546;-66
2021/03/24 10:14:46;;;;;;;40.30;31.80;;;15.10;62.10;;;;;;5067696;28;20860;-67
2021/03/24 10:17:24;;;;;;;42.23;32.67;;;14.90;66.20;;;;;;5067741;28;20420;-66
2021/03/24 10:20:08;;;;;;;38.63;31.40;;;15.10;66.10;;;;;;5057776;28;20524;-65
2021/03/24 10:23:00;;;;;;;37.97;30.47;;;15.20;63.10;;;;;;5067700;28;20404;-65
2021/03/24 10:25:29;;;;;;;40.87;31.30;;;15.00;64.10;;;;;;5067791;28;20933;-65
2021/03/24 10:27:56;;;;;;;39.87;31.27;;;15.00;66.40;;;;;;5067360;28;20562;-66
2021/03/24 10:30:34;;;;;;;39.27;30.27;;;15.10;67.40;;;;;;5067669;28;21068;-65
2021/03/24 10:33:02;;;;;;;40.00;30.73;;;15.10;66.50;;;;;;5067258;28;20427;-66
2021/03/24 10:35:31;;;;;;;37.13;30.20;;;15.10;68.90;;;;;;5071389;28;20423;-66
2021/03/24 10:38:05;;;;;;;38.07;29.80;;;15.40;67.00;;;;;;5071831;28;20949;-67
2021/03/24 10:40:38;;;;;;;37.53;29.60;;;15.40;66.90;;;;;;5071907;28;20435;-66
2021/03/24 10:43:15;;;;;;;36.07;30.43;;;15.40;66.50;;;;;;5070394;28;20475;-67
2021/03/24 10:45:49;;;;;;;38.43;30.73;;;15.50;65.70;;;;;;5071925;28;20548;-65
2021/03/24 10:48:18;;;;;;;37.50;30.70;;;15.60;67.00;;;;;;5078017;28;20416;-65
2021/03/24 10:51:05;;;;;;;35.83;29.40;;;16.10;63.80;;;;;;5071369;28;20434;-66
2021/03/24 10:53:36;;;;;;;32.50;28.90;;;16.50;61.50;;;;;;5069342;28;21045;-66
2021/03/24 10:56:04;;;;;;;39.50;30.83;;;17.40;61.00;;;;;;5071272;28;20518;-70
2021/03/24 10:58:50;;;;;;;35.00;29.00;;;18.00;59.60;;;;;;5068485;28;21258;-68
2021/03/24 11:01:53;;;;;;;34.47;30.00;;;18.80;56.90;;;;;;5067215;28;20847;-67
2021/03/24 11:04:38;;;;;;;35.50;29.83;;;20.10;54.60;;;;;;5070907;28;21057;-68
2021/03/24 11:07:21;;;;;;;34.73;30.60;;;20.70;48.30;;;;;;5071801;28;20407;-67
2021/03/24 11:09:58;;;;;;;35.00;30.80;;;21.50;48.70;;;;;;5067202;28;20960;-67
2021/03/24 11:12:41;;;;;;;36.40;32.50;;;22.10;45.00;;;;;;5068922;28;20488;-64
2021/03/24 11:15:16;;;;;;;35.83;32.13;;;22.20;43.90;;;;;;5071111;28;20422;-67
2021/03/24 11:17:43;;;;;;;36.90;33.00;;;22.50;40.10;;;;;;5071377;28;20823;-65
2021/03/24 11:20:43;;;;;;;37.53;31.30;;;21.90;40.40;;;;;;5070476;28;20420;-66
2021/03/24 11:23:13;;;;;;;37.23;33.20;;;21.40;41.60;;;;;;5071245;28;21138;-67
2021/03/24 11:25:56;;;;;;;35.87;31.83;;;21.20;44.90;;;;;;5070952;28;20459;-65
2021/03/24 11:28:38;;;;;;;35.57;31.37;;;22.10;42.20;;;;;;5070097;28;20534;-65
2021/03/24 11:31:08;;;;;;;37.30;32.93;;;22.50;42.00;;;;;;5070963;28;20429;-66
2021/03/24 11:34:04;;;;;;;36.60;32.73;;;22.40;40.70;;;;;;5066911;28;20439;-65
2021/03/24 11:36:54;;;;;;;37.33;33.50;;;22.30;40.80;;;;;;5071733;28;20453;-65
2021/03/24 11:39:32;;;;;;;37.83;33.73;;;23.00;38.60;;;;;;5069981;28;20451;-65
2021/03/24 11:42:20;;;;;;;37.33;32.33;;;22.40;38.50;;;;;;5071552;28;20407;-65
2021/03/24 11:44:49;;;;;;;36.70;32.57;;;21.70;41.60;;;;;;5068283;28;20516;-65
2021/03/24 11:47:46;;;;;;;38.40;33.30;;;21.10;39.70;;;;;;5070284;28;20420;-66
2021/03/24 11:50:33;;;;;;;36.30;32.40;;;21.30;38.90;;;;;;5020867;28;20581;-64
2021/03/24 11:53:39;;;;;;;36.53;32.30;;;22.10;40.10;;;;;;5009074;28;20402;-64
2021/03/24 11:56:31;;;;;;;37.37;33.10;;;22.10;39.50;;;;;;4946550;29;20876;-65
2021/03/24 11:59:11;;;;;;;37.83;33.80;;;22.40;40.10;;;;;;5027831;28;20430;-65
2021/03/24 12:02:03;;;;;;;37.10;33.10;;;22.10;40.40;;;;;;5028429;28;20892;-66
2021/03/24 12:04:41;;;;;;;36.70;32.93;;;22.30;40.30;;;;;;5027861;28;20473;-66
2021/03/24 12:07:37;;;;;;;35.07;31.37;;;22.30;40.40;;;;;;5028673;28;20455;-66
2021/03/24 12:10:30;;;;;;;36.00;32.30;;;22.80;40.40;;;;;;5016772;28;20856;-66
2021/03/24 12:13:33;;;;;;;38.80;34.63;;;23.10;40.40;;;;;;4979455;28;20429;-66
2021/03/24 12:16:09;;;;;;;35.17;31.50;;;23.60;38.30;;;;;;4999269;28;20952;-65
2021/03/24 12:18:43;;;;;;;35.97;32.30;;;23.60;39.10;;;;;;5026973;28;21235;-65
2021/03/24 12:21:32;;;;;;;35.37;31.80;;;23.40;38.10;;;;;;5013757;28;20459;-65
2021/03/24 12:24:01;;;;;;;35.57;31.83;;;23.80;39.50;;;;;;5039148;28;20466;-66
2021/03/24 12:26:28;;;;;;;35.20;31.60;;;24.60;36.20;;;;;;5031031;28;20957;-65
2021/03/24 12:29:02;;;;;;;34.27;29.53;;;24.90;33.90;;;;;;5062102;28;20423;-66
2021/03/24 12:31:30;;;;;;;34.00;30.50;;;24.50;35.10;;;;;;5058389;28;20434;-66
2021/03/24 12:34:01;;;;;;;34.17;30.77;;;24.30;35.00;;;;;;5070046;28;20451;-66
2021/03/24 12:36:29;;;;;;;33.73;30.23;;;24.30;36.10;;;;;;5068928;28;20954;-66
2021/03/24 12:39:07;;;;;;;34.67;31.10;;;24.00;35.70;;;;;;5069853;28;20423;-67
2021/03/24 12:41:37;;;;;;;33.63;30.07;;;23.10;35.10;;;;;;5059703;28;20435;-67
2021/03/24 12:44:08;;;;;;;33.53;29.93;;;22.50;38.90;;;;;;5068742;28;20739;-65
2021/03/24 12:46:34;;;;;;;35.80;31.90;;;22.30;38.10;;;;;;5069339;28;20436;-66
2021/03/24 12:48:59;;;;;;;35.60;31.90;;;22.50;38.80;;;;;;5069609;28;20440;-65
2021/03/24 12:51:39;;;;;;;35.40;31.30;;;22.30;38.20;;;;;;5068641;28;20180;-65
2021/03/24 12:54:11;;;;;;;35.80;31.90;;;22.70;37.80;;;;;;5069360;28;20189;-66
2021/03/24 12:56:54;;;;;;;34.87;31.17;;;22.60;38.30;;;;;;5069575;28;20423;-66
2021/03/24 12:59:57;;;;;;;32.77;29.47;;;23.10;36.40;;;;;;5067834;28;20429;-67
2021/03/24 13:02:47;;;;;;;32.77;29.57;;;23.00;35.90;;;;;;5069552;28;20941;-67
2021/03/24 13:05:26;;;;;;;34.57;29.80;;;23.10;37.60;;;;;;5068836;28;20435;-67
2021/03/24 13:08:02;;;;;;;32.00;27.90;;;22.90;38.00;;;;;;5067766;28;20435;-67
2021/03/24 13:10:49;;;;;;;31.07;27.87;;;22.60;38.00;;;;;;5067847;28;20434;-67
2021/03/24 13:13:19;;;;;;;32.60;29.10;;;23.10;37.70;;;;;;5057418;28;20427;-67
2021/03/24 13:15:53;;;;;;;31.93;28.50;;;23.00;37.90;;;;;;5069348;28;20495;-67
2021/03/24 13:18:55;;;;;;;31.67;28.33;;;23.20;36.80;;;;;;5061329;28;20876;-68
2021/03/24 13:21:41;;;;;;;32.60;29.20;;;23.40;36.40;;;;;;5066569;28;20458;-69
2021/03/24 13:24:16;;;;;;;30.60;27.30;;;22.90;36.30;;;;;;5067761;28;20991;-69
2021/03/24 13:26:43;;;;;;;31.00;27.83;;;22.70;37.40;;;;;;5079422;28;20419;-69